Redding, Connecticut
Current Conditions -  °F | °C
As of 4:04 AM on Friday 24 Oct 2014 (Local Time) from KDXR Reporting Station
Overcast Overcast  
Wind Chill: 47°   Ceiling: 1500
Heat Index: 49°   Visibility: 10mi
Dew Point: 42°   Wind: 5mph
Humidity: 77%   Direction: 340°NNW
Pressure: 29.77"   Gusts: NA
Location:  41.3°N, 73.38°W
Report Text: KDXR 240804Z AUTO 34004KT 10SM OVC015 09/06 A2977 RMK AO2 T00940056
Loading
Personal Weather Stations






























Interactive Weather Map
Tropical Storm Tracking
New forecast layout! Learn more

10-Day Weather Forecast

Advertisements
Track Severe Weather on mobile